createdAt,value
2018-05-09T00:00:25.780Z,1003.02
2018-05-09T00:01:25.785Z,1003.01
2018-05-09T00:02:25.793Z,1003.03
2018-05-09T00:03:25.985Z,1003.02
2018-05-09T00:04:25.781Z,1003.05
2018-05-09T00:05:25.783Z,1003.00
2018-05-09T00:06:25.984Z,1002.97
2018-05-09T00:07:25.783Z,1002.99
2018-05-09T00:08:25.796Z,1003.00
2018-05-09T00:09:25.801Z,1002.95
2018-05-09T00:10:25.796Z,1002.92
2018-05-09T00:11:25.779Z,1002.95
2018-05-09T00:12:25.781Z,1002.97
2018-05-09T00:13:25.792Z,1002.93
2018-05-09T00:14:25.983Z,1002.97
2018-05-09T00:15:25.780Z,1002.98
2018-05-09T00:16:25.800Z,1002.99
2018-05-09T00:17:25.986Z,1002.94
2018-05-09T00:18:25.795Z,1002.96
2018-05-09T00:19:25.797Z,1002.96
2018-05-09T00:20:25.793Z,1002.97
2018-05-09T00:21:25.999Z,1002.97
2018-05-09T00:22:25.986Z,1002.95
2018-05-09T00:23:25.776Z,1002.99
2018-05-09T00:24:25.982Z,1003.01
2018-05-09T00:25:25.778Z,1002.96
2018-05-09T00:26:25.783Z,1002.99
2018-05-09T00:27:25.787Z,1003.01
2018-05-09T00:28:25.787Z,1002.98
2018-05-09T00:29:25.784Z,1003.00
2018-05-09T00:30:25.997Z,1003.00
2018-05-09T00:31:25.776Z,1002.98
2018-05-09T00:32:25.980Z,1002.98
2018-05-09T00:33:25.780Z,1002.94
2018-05-09T00:34:25.992Z,1002.92
2018-05-09T00:35:25.803Z,1002.95
2018-05-09T00:36:25.775Z,1002.90
2018-05-09T00:37:25.786Z,1002.91
2018-05-09T00:38:25.784Z,1002.89
2018-05-09T00:39:26.006Z,1002.89
2018-05-09T00:40:25.785Z,1002.89
2018-05-09T00:41:25.795Z,1002.86
2018-05-09T00:42:25.798Z,1002.84
2018-05-09T00:43:25.784Z,1002.86
2018-05-09T00:44:25.784Z,1002.83
2018-05-09T00:45:25.786Z,1002.81
2018-05-09T00:46:25.983Z,1002.82
2018-05-09T00:47:25.797Z,1002.78
2018-05-09T00:48:25.769Z,1002.79
2018-05-09T00:49:25.974Z,1002.76
2018-05-09T00:50:25.781Z,1002.76
2018-05-09T00:51:25.777Z,1002.75
2018-05-09T00:52:25.765Z,1002.76
2018-05-09T00:53:25.778Z,1002.77
2018-05-09T00:54:25.767Z,1002.79
2018-05-09T00:55:25.969Z,1002.79
2018-05-09T00:56:25.766Z,1002.79
2018-05-09T00:57:25.763Z,1002.78
2018-05-09T00:58:25.765Z,1002.79
2018-05-09T00:59:25.764Z,1002.77
2018-05-09T01:00:25.771Z,1002.73
2018-05-09T01:01:25.965Z,1002.75
2018-05-09T01:02:25.762Z,1002.75
2018-05-09T01:03:25.974Z,1002.76
2018-05-09T01:04:25.772Z,1002.70
2018-05-09T01:05:25.759Z,1002.75
2018-05-09T01:06:25.966Z,1002.74
2018-05-09T01:07:25.768Z,1002.74
2018-05-09T01:08:25.965Z,1002.74
2018-05-09T01:09:25.783Z,1002.73
2018-05-09T01:10:25.766Z,1002.75
2018-05-09T01:11:25.959Z,1002.72
2018-05-09T01:12:25.751Z,1002.71
2018-05-09T01:13:25.985Z,1002.69
2018-05-09T01:14:25.757Z,1002.71
2018-05-09T01:15:25.751Z,1002.68
2018-05-09T01:16:25.770Z,1002.69
2018-05-09T01:17:25.963Z,1002.67
2018-05-09T01:18:25.955Z,1002.67
2018-05-09T01:19:25.961Z,1002.67
2018-05-09T01:20:25.952Z,1002.62
2018-05-09T01:21:25.746Z,1002.60
2018-05-09T01:22:25.748Z,1002.58
2018-05-09T01:23:25.750Z,1002.59
2018-05-09T01:24:25.757Z,1002.58
2018-05-09T01:25:25.944Z,1002.58
2018-05-09T01:26:25.743Z,1002.57
2018-05-09T01:27:25.953Z,1002.57
2018-05-09T01:28:25.746Z,1002.57
2018-05-09T01:29:25.735Z,1002.56
2018-05-09T01:30:25.737Z,1002.58
2018-05-09T01:31:25.742Z,1002.58
2018-05-09T01:32:25.735Z,1002.57
2018-05-09T01:33:25.754Z,1002.63
2018-05-09T01:34:25.742Z,1002.58
2018-05-09T01:35:25.727Z,1002.59
2018-05-09T01:36:25.737Z,1002.59
2018-05-09T01:37:25.945Z,1002.61
2018-05-09T01:38:25.738Z,1002.59
2018-05-09T01:39:25.724Z,1002.58
2018-05-09T01:40:25.732Z,1002.61
2018-05-09T01:41:25.926Z,1002.57
2018-05-09T01:42:25.722Z,1002.57
2018-05-09T01:43:25.927Z,1002.60
2018-05-09T01:44:25.921Z,1002.60
2018-05-09T01:45:25.923Z,1002.58
2018-05-09T01:46:25.941Z,1002.59
2018-05-09T01:47:25.919Z,1002.56
2018-05-09T01:48:25.714Z,1002.55
2018-05-09T01:49:25.927Z,1002.56
2018-05-09T01:50:25.712Z,1002.59
2018-05-09T01:51:25.724Z,1002.58
2018-05-09T01:52:25.709Z,1002.57
2018-05-09T01:53:25.912Z,1002.54
2018-05-09T01:54:25.711Z,1002.57
2018-05-09T01:55:25.920Z,1002.56
2018-05-09T01:56:25.701Z,1002.53
2018-05-09T01:57:25.725Z,1002.55
2018-05-09T01:58:25.703Z,1002.55
2018-05-09T01:59:25.718Z,1002.51
2018-05-09T02:00:25.707Z,1002.54
2018-05-09T02:01:25.695Z,1002.56
2018-05-09T02:02:25.709Z,1002.54
2018-05-09T02:03:25.694Z,1002.53
2018-05-09T02:04:25.753Z,1002.53
2018-05-09T02:05:25.695Z,1002.56
2018-05-09T02:06:25.893Z,1002.54
2018-05-09T02:07:25.698Z,1002.57
2018-05-09T02:08:25.685Z,1002.58
2018-05-09T02:09:25.708Z,1002.58
2018-05-09T02:10:25.689Z,1002.56
2018-05-09T02:11:25.697Z,1002.63
2018-05-09T02:12:25.689Z,1002.61
2018-05-09T02:13:25.885Z,1002.64
2018-05-09T02:14:25.706Z,1002.62
2018-05-09T02:15:25.689Z,1002.64
2018-05-09T02:16:25.673Z,1002.58
2018-05-09T02:17:25.674Z,1002.63
2018-05-09T02:18:25.697Z,1002.60
2018-05-09T02:19:25.670Z,1002.64
2018-05-09T02:20:25.682Z,1002.60
2018-05-09T02:21:25.885Z,1002.60
2018-05-09T02:22:25.678Z,1002.61
2018-05-09T02:23:25.676Z,1002.58
2018-05-09T02:24:25.865Z,1002.57
2018-05-09T02:25:25.864Z,1002.62
2018-05-09T02:26:25.683Z,1002.59
2018-05-09T02:27:25.860Z,1002.56
2018-05-09T02:28:25.657Z,1002.54
2018-05-09T02:29:25.656Z,1002.55
2018-05-09T02:30:25.653Z,1002.57
2018-05-09T02:31:25.653Z,1002.54
2018-05-09T02:32:25.852Z,1002.56
2018-05-09T02:33:25.647Z,1002.57
2018-05-09T02:34:25.648Z,1002.55
2018-05-09T02:35:25.660Z,1002.60
2018-05-09T02:36:25.654Z,1002.56
2018-05-09T02:37:25.847Z,1002.56
2018-05-09T02:38:25.640Z,1002.54
2018-05-09T02:39:25.664Z,1002.53
2018-05-09T02:40:25.647Z,1002.53
2018-05-09T02:41:25.636Z,1002.55
2018-05-09T02:42:25.838Z,1002.53
2018-05-09T02:43:25.642Z,1002.53
2018-05-09T02:44:25.629Z,1002.55
2018-05-09T02:45:25.660Z,1002.53
2018-05-09T02:46:25.631Z,1002.52
2018-05-09T02:47:25.634Z,1002.55
2018-05-09T02:48:25.637Z,1002.50
2018-05-09T02:49:25.624Z,1002.54
2018-05-09T02:50:25.634Z,1002.56
2018-05-09T02:51:25.627Z,1002.51
2018-05-09T02:52:25.623Z,1002.51
2018-05-09T02:53:25.820Z,1002.51
2018-05-09T02:54:25.621Z,1002.51
2018-05-09T02:55:25.613Z,1002.55
2018-05-09T02:56:25.608Z,1002.58
2018-05-09T02:57:25.911Z,1002.56
2018-05-09T02:58:25.607Z,1002.55
2018-05-09T02:59:25.616Z,1002.57
2018-05-09T03:00:25.605Z,1002.61
2018-05-09T03:01:25.612Z,1002.61
2018-05-09T03:02:26.056Z,1002.63
2018-05-09T03:03:25.601Z,1002.59
2018-05-09T03:04:25.603Z,1002.59
2018-05-09T03:05:25.597Z,1002.57
2018-05-09T03:06:25.806Z,1002.63
2018-05-09T03:07:25.600Z,1002.61
2018-05-09T03:08:25.587Z,1002.63
2018-05-09T03:09:25.586Z,1002.61
2018-05-09T03:10:25.790Z,1002.65
2018-05-09T03:11:25.589Z,1002.64
2018-05-09T03:12:25.799Z,1002.70
2018-05-09T03:13:25.593Z,1002.68
2018-05-09T03:14:25.792Z,1002.69
2018-05-09T03:15:25.588Z,1002.66
2018-05-09T03:16:25.586Z,1002.65
2018-05-09T03:17:25.578Z,1002.71
2018-05-09T03:18:25.593Z,1002.67
2018-05-09T03:19:25.588Z,1002.65
2018-05-09T03:20:25.581Z,1002.65
2018-05-09T03:21:25.564Z,1002.64
2018-05-09T03:22:25.579Z,1002.60
2018-05-09T03:23:25.763Z,1002.59
2018-05-09T03:24:25.557Z,1002.57
2018-05-09T03:25:25.573Z,1002.60
2018-05-09T03:26:25.555Z,1002.59
2018-05-09T03:27:25.565Z,1002.63
2018-05-09T03:28:25.559Z,1002.64
2018-05-09T03:29:25.617Z,1002.66
2018-05-09T03:30:25.545Z,1002.66
2018-05-09T03:31:25.543Z,1002.63
2018-05-09T03:32:25.541Z,1002.64
2018-05-09T03:33:25.540Z,1002.68
2018-05-09T03:34:25.539Z,1002.64
2018-05-09T03:35:25.547Z,1002.64
2018-05-09T03:36:25.737Z,1002.65
2018-05-09T03:37:25.807Z,1002.68
2018-05-09T03:38:25.544Z,1002.68
2018-05-09T03:39:25.528Z,1002.68
2018-05-09T03:40:25.539Z,1002.71
2018-05-09T03:41:25.733Z,1002.67
2018-05-09T03:42:25.525Z,1002.69
2018-05-09T03:43:25.535Z,1002.72
2018-05-09T03:44:25.533Z,1002.72
2018-05-09T03:45:25.517Z,1002.76
2018-05-09T03:46:25.516Z,1002.75
2018-05-09T03:47:25.524Z,1002.73
2018-05-09T03:48:25.714Z,1002.75
2018-05-09T03:49:25.727Z,1002.78
2018-05-09T03:50:25.722Z,1002.72
2018-05-09T03:51:25.503Z,1002.75
2018-05-09T03:52:25.506Z,1002.77
2018-05-09T03:53:25.504Z,1002.76
2018-05-09T03:54:25.705Z,1002.82
2018-05-09T03:55:25.500Z,1002.78
2018-05-09T03:56:25.493Z,1002.79
2018-05-09T03:57:25.492Z,1002.83
2018-05-09T03:58:25.696Z,1002.83
2018-05-09T03:59:25.577Z,1002.84
2018-05-09T04:00:25.483Z,1002.83
2018-05-09T04:01:25.499Z,1002.85
2018-05-09T04:02:25.689Z,1002.82
2018-05-09T04:03:25.493Z,1002.84
2018-05-09T04:04:25.682Z,1002.80
2018-05-09T04:05:25.477Z,1002.84
2018-05-09T04:06:25.484Z,1002.83
2018-05-09T04:07:25.481Z,1002.86
2018-05-09T04:08:25.676Z,1002.86
2018-05-09T04:09:25.517Z,1002.90
2018-05-09T04:10:25.467Z,1002.91
2018-05-09T04:11:25.474Z,1002.93
2018-05-09T04:12:25.473Z,1002.97
2018-05-09T04:13:25.472Z,1002.99
2018-05-09T04:14:25.455Z,1002.97
2018-05-09T04:15:25.661Z,1002.93
2018-05-09T04:16:25.453Z,1002.94
2018-05-09T04:17:25.451Z,1002.96
2018-05-09T04:18:25.661Z,1002.93
2018-05-09T04:19:25.464Z,1002.96
2018-05-09T04:20:25.648Z,1002.97
2018-05-09T04:21:25.669Z,1002.97
2018-05-09T04:22:25.442Z,1002.95
2018-05-09T04:23:25.434Z,1002.97
2018-05-09T04:24:25.653Z,1002.97
2018-05-09T04:25:25.437Z,1002.96
2018-05-09T04:26:25.636Z,1002.95
2018-05-09T04:27:25.433Z,1002.97
2018-05-09T04:28:25.644Z,1002.96
2018-05-09T04:29:25.440Z,1002.98
2018-05-09T04:30:25.422Z,1002.97
2018-05-09T04:31:25.418Z,1002.93
2018-05-09T04:32:25.417Z,1002.98
2018-05-09T04:33:25.425Z,1002.98
2018-05-09T04:34:25.416Z,1002.96
2018-05-09T04:35:25.411Z,1002.97
2018-05-09T04:36:25.409Z,1002.99
2018-05-09T04:37:25.409Z,1003.00
2018-05-09T04:38:25.404Z,1002.94
2018-05-09T04:39:25.405Z,1002.94
2018-05-09T04:40:25.401Z,1003.00
2018-05-09T04:41:25.606Z,1002.98
2018-05-09T04:42:25.615Z,1002.95
2018-05-09T04:43:25.391Z,1002.95
2018-05-09T04:44:25.440Z,1002.97
2018-05-09T04:45:25.401Z,1002.92
2018-05-09T04:46:25.603Z,1002.92
2018-05-09T04:47:25.383Z,1002.94
2018-05-09T04:48:25.387Z,1002.95
2018-05-09T04:49:25.386Z,1002.96
2018-05-09T04:50:25.392Z,1002.95
2018-05-09T04:51:25.609Z,1002.96
2018-05-09T04:52:25.578Z,1002.98
2018-05-09T04:53:25.584Z,1002.95
2018-05-09T04:54:25.380Z,1002.93
2018-05-09T04:55:25.488Z,1002.93
2018-05-09T04:56:25.361Z,1002.93
2018-05-09T04:57:25.365Z,1002.95
2018-05-09T04:58:25.369Z,1002.94
2018-05-09T04:59:25.395Z,1002.93
2018-05-09T05:00:25.358Z,1002.92
2018-05-09T05:01:25.355Z,1002.93
2018-05-09T05:02:25.353Z,1002.96
2018-05-09T05:03:25.552Z,1002.97
2018-05-09T05:04:25.356Z,1002.95
2018-05-09T05:05:25.358Z,1002.99
2018-05-09T05:06:25.340Z,1003.02
2018-05-09T05:07:25.340Z,1002.99
2018-05-09T05:08:25.539Z,1003.04
2018-05-09T05:09:25.585Z,1003.01
2018-05-09T05:10:25.541Z,1002.99
2018-05-09T05:11:25.330Z,1002.99
2018-05-09T05:12:25.328Z,1003.01
2018-05-09T05:13:25.331Z,1003.01
2018-05-09T05:14:25.337Z,1003.07
2018-05-09T05:15:25.323Z,1003.07
2018-05-09T05:16:25.334Z,1003.09
2018-05-09T05:17:25.331Z,1003.10
2018-05-09T05:18:25.317Z,1003.12
2018-05-09T05:19:25.313Z,1003.14
2018-05-09T05:20:25.322Z,1003.17
2018-05-09T05:21:25.311Z,1003.15
2018-05-09T05:22:25.311Z,1003.14
2018-05-09T05:23:25.523Z,1003.14
2018-05-09T05:24:25.524Z,1003.12
2018-05-09T05:25:25.319Z,1003.10
2018-05-09T05:26:25.305Z,1003.11
2018-05-09T05:27:25.312Z,1003.14
2018-05-09T05:28:25.297Z,1003.14
2018-05-09T05:29:25.501Z,1003.13
2018-05-09T05:30:25.513Z,1003.13
2018-05-09T05:31:25.297Z,1003.16
2018-05-09T05:32:25.296Z,1003.18
2018-05-09T05:33:25.311Z,1003.17
2018-05-09T05:34:25.299Z,1003.14
2018-05-09T05:35:25.299Z,1003.17
2018-05-09T05:36:25.299Z,1003.17
2018-05-09T05:37:25.311Z,1003.24
2018-05-09T05:38:25.497Z,1003.18
2018-05-09T05:39:25.308Z,1003.18
2018-05-09T05:40:25.296Z,1003.21
2018-05-09T05:41:25.482Z,1003.20
2018-05-09T05:42:25.278Z,1003.19
2018-05-09T05:43:25.286Z,1003.16
2018-05-09T05:44:25.272Z,1003.16
2018-05-09T05:45:25.496Z,1003.20
2018-05-09T05:46:25.273Z,1003.21
2018-05-09T05:47:25.269Z,1003.24
2018-05-09T05:48:25.277Z,1003.21
2018-05-09T05:49:25.287Z,1003.24
2018-05-09T05:50:25.264Z,1003.28
2018-05-09T05:51:25.261Z,1003.23
2018-05-09T05:52:25.260Z,1003.27
2018-05-09T05:53:25.260Z,1003.29
2018-05-09T05:54:25.271Z,1003.27
2018-05-09T05:55:25.259Z,1003.27
2018-05-09T05:56:25.257Z,1003.24
2018-05-09T05:57:25.268Z,1003.26
2018-05-09T05:58:25.268Z,1003.26
2018-05-09T05:59:25.259Z,1003.28
2018-05-09T06:00:25.454Z,1003.27
2018-05-09T06:01:25.263Z,1003.27
2018-05-09T06:02:25.250Z,1003.24
2018-05-09T06:03:25.252Z,1003.25
2018-05-09T06:04:25.259Z,1003.24
2018-05-09T06:05:25.247Z,1003.25
2018-05-09T06:06:25.269Z,1003.25
2018-05-09T06:07:25.257Z,1003.25
2018-05-09T06:08:25.252Z,1003.27
2018-05-09T06:09:25.243Z,1003.24
2018-05-09T06:10:25.478Z,1003.24
2018-05-09T06:11:25.446Z,1003.24
2018-05-09T06:12:25.252Z,1003.26
2018-05-09T06:13:25.248Z,1003.25
2018-05-09T06:14:25.248Z,1003.25
2018-05-09T06:15:25.451Z,1003.26
2018-05-09T06:16:25.237Z,1003.23
2018-05-09T06:17:25.252Z,1003.23
2018-05-09T06:18:25.260Z,1003.22
2018-05-09T06:19:25.247Z,1003.24
2018-05-09T06:20:25.236Z,1003.26
2018-05-09T06:21:25.235Z,1003.24
2018-05-09T06:22:25.248Z,1003.25
2018-05-09T06:23:25.229Z,1003.29
2018-05-09T06:24:25.444Z,1003.29
2018-05-09T06:25:25.245Z,1003.31
2018-05-09T06:26:25.443Z,1003.36
2018-05-09T06:27:25.231Z,1003.36
2018-05-09T06:28:25.228Z,1003.40
2018-05-09T06:29:25.231Z,1003.38
2018-05-09T06:30:25.230Z,1003.41
2018-05-09T06:31:25.225Z,1003.43
2018-05-09T06:32:25.233Z,1003.40
2018-05-09T06:33:25.223Z,1003.43
2018-05-09T06:34:25.430Z,1003.42
2018-05-09T06:35:25.426Z,1003.43
2018-05-09T06:36:25.225Z,1003.44
2018-05-09T06:37:25.221Z,1003.46
2018-05-09T06:38:25.448Z,1003.45
2018-05-09T06:39:25.241Z,1003.48
2018-05-09T06:40:25.427Z,1003.47
2018-05-09T06:41:25.224Z,1003.47
2018-05-09T06:42:25.436Z,1003.50
2018-05-09T06:43:25.229Z,1003.45
2018-05-09T06:44:25.221Z,1003.47
2018-05-09T06:45:25.232Z,1003.46
2018-05-09T06:46:25.224Z,1003.44
2018-05-09T06:47:25.426Z,1003.44
2018-05-09T06:48:25.229Z,1003.44
2018-05-09T06:49:25.230Z,1003.44
2018-05-09T06:50:25.219Z,1003.41
2018-05-09T06:51:25.221Z,1003.44
2018-05-09T06:52:25.422Z,1003.45
2018-05-09T06:53:25.419Z,1003.46
2018-05-09T06:54:25.229Z,1003.42
2018-05-09T06:55:25.217Z,1003.46
2018-05-09T06:56:25.218Z,1003.41
2018-05-09T06:57:25.221Z,1003.48
2018-05-09T06:58:25.221Z,1003.46
2018-05-09T06:59:25.432Z,1003.47
2018-05-09T07:00:25.233Z,1003.46
2018-05-09T07:01:25.426Z,1003.41
2018-05-09T07:02:25.245Z,1003.44
2018-05-09T07:03:25.217Z,1003.41
2018-05-09T07:04:25.230Z,1003.42
2018-05-09T07:05:25.245Z,1003.43
2018-05-09T07:06:25.455Z,1003.43
2018-05-09T07:07:25.224Z,1003.44
2018-05-09T07:08:25.424Z,1003.47
2018-05-09T07:09:25.230Z,1003.50
2018-05-09T07:10:25.216Z,1003.47
2018-05-09T07:11:25.223Z,1003.58
2018-05-09T07:12:25.229Z,1003.62
2018-05-09T07:13:25.436Z,1003.68
2018-05-09T07:14:25.219Z,1003.70
2018-05-09T07:15:25.424Z,1003.62
2018-05-09T07:16:25.425Z,1003.59
2018-05-09T07:17:25.222Z,1003.60
2018-05-09T07:18:25.223Z,1003.66
2018-05-09T07:19:25.221Z,1003.78
2018-05-09T07:20:25.435Z,1003.79
2018-05-09T07:21:25.429Z,1003.77
2018-05-09T07:22:25.249Z,1003.67
2018-05-09T07:23:25.429Z,1003.59
2018-05-09T07:24:25.445Z,1003.60
2018-05-09T07:25:25.230Z,1003.60
2018-05-09T07:26:25.246Z,1003.56
2018-05-09T07:27:25.230Z,1003.57
2018-05-09T07:28:25.232Z,1003.58
2018-05-09T07:29:25.459Z,1003.59
2018-05-09T07:30:25.249Z,1003.56
2018-05-09T07:31:25.241Z,1003.61
2018-05-09T07:32:25.241Z,1003.62
2018-05-09T07:33:25.444Z,1003.61
2018-05-09T07:34:25.243Z,1003.61
2018-05-09T07:35:25.488Z,1003.57
2018-05-09T07:36:25.250Z,1003.57
2018-05-09T07:37:25.249Z,1003.57
2018-05-09T07:38:25.262Z,1003.57
2018-05-09T07:39:25.464Z,1003.55
2018-05-09T07:40:25.466Z,1003.52
2018-05-09T07:41:25.458Z,1003.52
2018-05-09T07:42:25.258Z,1003.51
2018-05-09T07:43:25.271Z,1003.47
2018-05-09T07:44:25.484Z,1003.55
2018-05-09T07:45:25.262Z,1003.50
2018-05-09T07:46:25.264Z,1003.57
2018-05-09T07:47:25.467Z,1003.51
2018-05-09T07:48:25.471Z,1003.55
2018-05-09T07:49:25.274Z,1003.46
2018-05-09T07:50:25.275Z,1003.50
2018-05-09T07:51:25.286Z,1003.47
2018-05-09T07:52:25.287Z,1003.45
2018-05-09T07:53:25.274Z,1003.40
2018-05-09T07:54:25.491Z,1003.41
2018-05-09T07:55:25.338Z,1003.44
2018-05-09T07:56:25.280Z,1003.43
2018-05-09T07:57:25.302Z,1003.44
2018-05-09T07:58:25.283Z,1003.47
2018-05-09T07:59:25.535Z,1003.45
2018-05-09T08:00:25.302Z,1003.42
2018-05-09T08:01:25.302Z,1003.41
2018-05-09T08:02:25.291Z,1003.39
2018-05-09T08:03:25.290Z,1003.46
2018-05-09T08:04:25.313Z,1003.48
2018-05-09T08:05:25.502Z,1003.53
2018-05-09T08:06:25.306Z,1003.56
2018-05-09T08:07:25.295Z,1003.59
2018-05-09T08:08:25.308Z,1003.51
2018-05-09T08:09:25.308Z,1003.54
2018-05-09T08:10:25.316Z,1003.54
2018-05-09T08:11:25.515Z,1003.54
2018-05-09T08:12:25.506Z,1003.68
2018-05-09T08:13:25.331Z,1003.68
2018-05-09T08:14:25.319Z,1003.62
2018-05-09T08:15:25.313Z,1003.59
2018-05-09T08:16:25.310Z,1003.59
2018-05-09T08:17:25.341Z,1003.58
2018-05-09T08:18:25.326Z,1003.58
2018-05-09T08:19:25.333Z,1003.58
2018-05-09T08:20:25.319Z,1003.53
2018-05-09T08:21:25.340Z,1003.56
2018-05-09T08:22:25.331Z,1003.58
2018-05-09T08:23:25.335Z,1003.56
2018-05-09T08:24:25.327Z,1003.57
2018-05-09T08:25:25.545Z,1003.55
2018-05-09T08:26:25.332Z,1003.60
2018-05-09T08:27:25.343Z,1003.58
2018-05-09T08:28:25.535Z,1003.56
2018-05-09T08:29:25.539Z,1003.59
2018-05-09T08:30:25.622Z,1003.57
2018-05-09T08:31:25.337Z,1003.54
2018-05-09T08:32:25.351Z,1003.55
2018-05-09T08:33:25.343Z,1003.55
2018-05-09T08:34:25.365Z,1003.55
2018-05-09T08:35:25.351Z,1003.59
2018-05-09T08:36:25.372Z,1003.61
2018-05-09T08:37:25.354Z,1003.58
2018-05-09T08:38:25.369Z,1003.60
2018-05-09T08:39:25.353Z,1003.56
2018-05-09T08:40:25.372Z,1003.55
2018-05-09T08:41:25.362Z,1003.55
2018-05-09T08:42:25.562Z,1003.53
2018-05-09T08:43:25.453Z,1003.52
2018-05-09T08:44:25.400Z,1003.53
2018-05-09T08:45:25.378Z,1003.54
2018-05-09T08:46:25.370Z,1003.53
2018-05-09T08:47:25.386Z,1003.50
2018-05-09T08:48:25.391Z,1003.55
2018-05-09T08:49:25.524Z,1003.50
2018-05-09T08:50:25.591Z,1003.50
2018-05-09T08:51:25.379Z,1003.51
2018-05-09T08:52:25.382Z,1003.51
2018-05-09T08:53:25.383Z,1003.48
2018-05-09T08:54:25.406Z,1003.45
2018-05-09T08:55:25.495Z,1003.49
2018-05-09T08:56:25.395Z,1003.45
2018-05-09T08:57:25.394Z,1003.52
2018-05-09T08:58:25.396Z,1003.45
2018-05-09T08:59:25.411Z,1003.45
2018-05-09T09:00:25.402Z,1003.43
2018-05-09T09:01:25.413Z,1003.42
2018-05-09T09:02:25.609Z,1003.41
2018-05-09T09:03:25.622Z,1003.41
2018-05-09T09:04:25.463Z,1003.40
2018-05-09T09:05:25.413Z,1003.38
2018-05-09T09:06:25.489Z,1003.38
2018-05-09T09:07:25.415Z,1003.41
2018-05-09T09:08:25.619Z,1003.41
2018-05-09T09:09:25.658Z,1003.42
2018-05-09T09:10:25.420Z,1003.38
2018-05-09T09:11:25.628Z,1003.36
2018-05-09T09:12:25.440Z,1003.37
2018-05-09T09:13:25.441Z,1003.36
2018-05-09T09:14:25.430Z,1003.36
2018-05-09T09:15:25.555Z,1003.39
2018-05-09T09:16:25.436Z,1003.34
2018-05-09T09:17:25.640Z,1003.37
2018-05-09T09:18:25.657Z,1003.35
2018-05-09T09:19:25.673Z,1003.35
2018-05-09T09:20:25.453Z,1003.34
2018-05-09T09:21:25.458Z,1003.37
2018-05-09T09:22:25.664Z,1003.39
2018-05-09T09:23:25.455Z,1003.37
2018-05-09T09:24:25.455Z,1003.34
2018-05-09T09:25:25.456Z,1003.37
2018-05-09T09:26:25.457Z,1003.34
2018-05-09T09:27:25.515Z,1003.30
2018-05-09T09:28:25.665Z,1003.33
2018-05-09T09:29:25.683Z,1003.30
2018-05-09T09:30:25.467Z,1003.30
2018-05-09T09:31:25.478Z,1003.21
2018-05-09T09:32:25.479Z,1003.21
2018-05-09T09:33:25.474Z,1003.22
2018-05-09T09:34:25.484Z,1003.19
2018-05-09T09:35:25.693Z,1003.19
2018-05-09T09:36:25.479Z,1003.18
2018-05-09T09:37:25.481Z,1003.12
2018-05-09T09:38:25.482Z,1003.16
2018-05-09T09:39:25.490Z,1003.15
2018-05-09T09:40:25.496Z,1003.16
2018-05-09T09:41:25.513Z,1003.15
2018-05-09T09:42:25.493Z,1003.11
2018-05-09T09:43:25.510Z,1003.13
2018-05-09T09:44:25.541Z,1003.12
2018-05-09T09:45:25.704Z,1003.10
2018-05-09T09:46:25.500Z,1003.09
2018-05-09T09:47:25.501Z,1003.07
2018-05-09T09:48:25.520Z,1003.05
2018-05-09T09:49:25.520Z,1003.01
2018-05-09T09:50:25.729Z,1003.05
2018-05-09T09:51:25.714Z,1003.07
2018-05-09T09:52:25.515Z,1003.01
2018-05-09T09:53:25.520Z,1003.02
2018-05-09T09:54:25.587Z,1002.96
2018-05-09T09:55:25.546Z,1002.96
2018-05-09T09:56:25.742Z,1002.92
2018-05-09T09:57:25.729Z,1002.91
2018-05-09T09:58:25.528Z,1002.90
2018-05-09T09:59:25.564Z,1002.88
2018-05-09T10:00:25.735Z,1002.84
2018-05-09T10:01:25.560Z,1002.82
2018-05-09T10:02:25.536Z,1002.83
2018-05-09T10:03:25.552Z,1002.79
2018-05-09T10:04:25.547Z,1002.78
2018-05-09T10:05:25.568Z,1002.84
2018-05-09T10:06:25.557Z,1002.80
2018-05-09T10:07:25.765Z,1002.81
2018-05-09T10:08:25.549Z,1002.88
2018-05-09T10:09:25.559Z,1002.78
2018-05-09T10:10:25.567Z,1002.78
2018-05-09T10:11:25.571Z,1002.80
2018-05-09T10:12:25.558Z,1002.76
2018-05-09T10:13:25.568Z,1002.78
2018-05-09T10:14:25.569Z,1002.79
2018-05-09T10:15:25.562Z,1002.75
2018-05-09T10:16:25.578Z,1002.74
2018-05-09T10:17:25.589Z,1002.72
2018-05-09T10:18:25.786Z,1002.74
2018-05-09T10:19:25.572Z,1002.69
2018-05-09T10:20:25.575Z,1002.67
2018-05-09T10:21:25.577Z,1002.64
2018-05-09T10:22:25.781Z,1002.63
2018-05-09T10:23:25.581Z,1002.60
2018-05-09T10:24:25.583Z,1002.60
2018-05-09T10:25:25.787Z,1002.56
2018-05-09T10:26:25.611Z,1002.53
2018-05-09T10:27:25.794Z,1002.53
2018-05-09T10:28:25.590Z,1002.52
2018-05-09T10:29:25.796Z,1002.52
2018-05-09T10:30:25.593Z,1002.48
2018-05-09T10:31:25.655Z,1002.48
2018-05-09T10:32:25.599Z,1002.49
2018-05-09T10:33:25.613Z,1002.45
2018-05-09T10:34:25.603Z,1002.43
2018-05-09T10:35:25.807Z,1002.41
2018-05-09T10:36:25.621Z,1002.39
2018-05-09T10:37:25.813Z,1002.41
2018-05-09T10:38:25.608Z,1002.41
2018-05-09T10:39:25.627Z,1002.43
2018-05-09T10:40:25.627Z,1002.37
2018-05-09T10:41:25.834Z,1002.39
2018-05-09T10:42:25.630Z,1002.39
2018-05-09T10:43:25.630Z,1002.37
2018-05-09T10:44:25.639Z,1002.33
2018-05-09T10:45:25.669Z,1002.35
2018-05-09T10:46:25.641Z,1002.33
2018-05-09T10:47:25.844Z,1002.34
2018-05-09T10:48:25.633Z,1002.32
2018-05-09T10:49:25.640Z,1002.35
2018-05-09T10:50:25.641Z,1002.33
2018-05-09T10:51:25.639Z,1002.33
2018-05-09T10:52:25.650Z,1002.34
2018-05-09T10:53:25.655Z,1002.28
2018-05-09T10:54:25.658Z,1002.23
2018-05-09T10:55:25.651Z,1002.28
2018-05-09T10:56:25.651Z,1002.29
2018-05-09T10:57:25.654Z,1002.30
2018-05-09T10:58:25.668Z,1002.32
2018-05-09T10:59:25.659Z,1002.30
2018-05-09T11:00:25.667Z,1002.24
2018-05-09T11:01:25.877Z,1002.27
2018-05-09T11:02:25.676Z,1002.31
2018-05-09T11:03:25.665Z,1002.25
2018-05-09T11:04:25.704Z,1002.23
2018-05-09T11:05:25.687Z,1002.25
2018-05-09T11:06:25.684Z,1002.21
2018-05-09T11:07:25.687Z,1002.23
2018-05-09T11:08:25.686Z,1002.20
2018-05-09T11:09:25.683Z,1002.23
2018-05-09T11:10:25.760Z,1002.24
2018-05-09T11:11:25.899Z,1002.20
2018-05-09T11:12:25.697Z,1002.24
2018-05-09T11:13:25.687Z,1002.21
2018-05-09T11:14:25.718Z,1002.20
2018-05-09T11:15:25.707Z,1002.17
2018-05-09T11:16:25.698Z,1002.15
2018-05-09T11:17:25.981Z,1002.16
2018-05-09T11:18:25.715Z,1002.14
2018-05-09T11:19:25.929Z,1002.10
2018-05-09T11:20:25.909Z,1002.11
2018-05-09T11:21:25.931Z,1002.10
2018-05-09T11:22:25.727Z,1002.12
2018-05-09T11:23:25.712Z,1002.10
2018-05-09T11:24:25.964Z,1002.06
2018-05-09T11:25:25.720Z,1002.07
2018-05-09T11:26:25.925Z,1002.07
2018-05-09T11:27:25.724Z,1002.08
2018-05-09T11:28:25.942Z,1002.08
2018-05-09T11:29:25.765Z,1002.05
2018-05-09T11:30:25.731Z,1002.01
2018-05-09T11:31:25.736Z,1002.00
2018-05-09T11:32:25.740Z,1001.95
2018-05-09T11:33:25.754Z,1001.93
2018-05-09T11:34:25.757Z,1001.94
2018-05-09T11:35:25.745Z,1001.92
2018-05-09T11:36:25.749Z,1001.91
2018-05-09T11:37:26.025Z,1001.93
2018-05-09T11:38:25.779Z,1001.94
2018-05-09T11:39:25.958Z,1001.90
2018-05-09T11:40:25.761Z,1001.93
2018-05-09T11:41:25.763Z,1001.89
2018-05-09T11:42:25.763Z,1001.91
2018-05-09T11:43:25.776Z,1001.89
2018-05-09T11:44:25.776Z,1001.88
2018-05-09T11:45:25.775Z,1001.87
2018-05-09T11:46:25.980Z,1001.86
2018-05-09T11:47:25.778Z,1001.81
2018-05-09T11:48:25.787Z,1001.78
2018-05-09T11:49:25.796Z,1001.81
2018-05-09T11:50:25.787Z,1001.80
2018-05-09T11:51:25.799Z,1001.85
2018-05-09T11:52:26.006Z,1001.80
2018-05-09T11:53:26.012Z,1001.76
2018-05-09T11:54:25.820Z,1001.82
2018-05-09T11:55:26.002Z,1001.81
2018-05-09T11:56:25.801Z,1001.79
2018-05-09T11:57:25.804Z,1001.77
2018-05-09T11:58:25.819Z,1001.72
2018-05-09T11:59:25.823Z,1001.75
2018-05-09T12:00:25.815Z,1001.71
2018-05-09T12:01:25.817Z,1001.71
2018-05-09T12:02:25.907Z,1001.73
2018-05-09T12:03:25.843Z,1001.72
2018-05-09T12:04:25.832Z,1001.72
2018-05-09T12:05:25.829Z,1001.72